| time (UTC) | temp C | wind direction | speed KPH | gust KPH | rain 1hr cm | rain 24hr cm | rain mn cm | humidity % | barometer mb |
| 20260504150504 | 14 | 310 | 16.1 | 29.0 | 0.00 | 1.04 | 0.00 | 61 | 1012.9 |
| 20260504141004 | 14 | 325 | 17.7 | 32.2 | 0.00 | 2.59 | 1.09 | 59 | 1012.4 |
| 20260504140504 | 14 | 326 | 19.3 | 25.7 | 0.00 | 2.72 | 1.09 | 60 | 1012.5 |
| 20260504130504 | 15 | 328 | 20.9 | 32.2 | 0.00 | 3.81 | 1.09 | 59 | 1011.9 |
| 20260504110506 | 15 | 306 | 20.9 | 32.2 | 0.00 | 4.80 | 1.09 | 64 | 1009.3 |
| 20260504082005 | 19 | 337 | 27.4 | 41.8 | 0.00 | 5.66 | 1.09 | 57 | 1005.7 |
| 20260504081004 | 19 | 334 | 33.8 | 45.1 | 0.00 | 5.69 | 1.09 | 56 | 1005.5 |
| 20260504080504 | 20 | 326 | 27.4 | 41.8 | 0.00 | 5.69 | 1.09 | 57 | 1005.2 |
| 20260504050506 | 22 | 296 | 22.5 | 37.0 | 0.00 | 5.82 | 1.09 | 56 | 1002.9 |
| 20260504050005 | 22 | 331 | 25.7 | 32.2 | 0.00 | 5.82 | 1.09 | 55 | 1003.0 |
| 20260504045504 | 22 | 300 | 20.9 | 32.2 | 0.00 | 5.82 | 1.09 | 55 | 1002.8 |
| 20260504044504 | 22 | 302 | 24.1 | 35.4 | 0.00 | 5.82 | 1.09 | 55 | 1002.9 |
| 20260504044004 | 22 | 305 | 22.5 | 37.0 | 0.00 | 5.82 | 1.09 | 55 | 1002.9 |
| 20260504043504 | 22 | 306 | 25.7 | 38.6 | 0.00 | 5.82 | 1.09 | 54 | 1002.9 |
| 20260504043006 | 22 | 292 | 25.7 | 45.1 | 0.00 | 5.82 | 1.09 | 54 | 1002.9 |
| 20260504042505 | 23 | 301 | 25.7 | 35.4 | 0.00 | 5.82 | 1.09 | 53 | 1002.9 |
| 20260504042004 | 23 | 326 | 25.7 | 41.8 | 0.00 | 5.82 | 1.09 | 53 | 1003.0 |
| 20260504041004 | 23 | 290 | 25.7 | 38.6 | 0.00 | 5.82 | 1.09 | 52 | 1003.0 |
| 20260504040504 | 23 | 338 | 25.7 | 41.8 | 0.00 | 5.82 | 1.09 | 52 | 1003.0 |
| 20260504040005 | 22 | 303 | 22.5 | 37.0 | 0.00 | 5.82 | 1.09 | 54 | 1003.0 |
| 20260504035504 | 23 | 309 | 27.4 | 41.8 | 0.00 | 5.82 | 1.09 | 53 | 1003.0 |
| 20260504035004 | 22 | 278 | 27.4 | 41.8 | 0.00 | 5.82 | 1.09 | 56 | 1002.8 |
| 20260504034004 | 22 | 317 | 25.7 | 37.0 | 0.00 | 5.82 | 1.09 | 61 | 1002.8 |
| 20260504033504 | 22 | 317 | 22.5 | 37.0 | 0.00 | 5.82 | 1.09 | 59 | 1002.8 |
| 20260504032505 | 22 | 313 | 19.3 | 32.2 | 0.00 | 5.82 | 1.09 | 62 | 1002.8 |
| 20260504032004 | 22 | 309 | 24.1 | 40.2 | 0.00 | 5.82 | 1.09 | 60 | 1002.8 |
| 20260504031004 | 22 | 330 | 20.9 | 32.2 | 0.00 | 5.82 | 1.09 | 62 | 1002.7 |
| 20260504030504 | 22 | 285 | 25.7 | 35.4 | 0.00 | 5.82 | 1.09 | 61 | 1002.8 |
| 20260504030005 | 22 | 279 | 24.1 | 35.4 | 0.00 | 5.82 | 1.09 | 65 | 1002.9 |
| 20260504025504 | 22 | 300 | 19.3 | 38.6 | 0.00 | 5.82 | 1.09 | 66 | 1002.9 |
| 20260504025005 | 22 | 321 | 20.9 | 32.2 | 0.00 | 5.82 | 1.09 | 66 | 1002.9 |
| 20260504024506 | 22 | 341 | 22.5 | 32.2 | 0.00 | 5.82 | 1.09 | 67 | 1003.1 |
| 20260504024005 | 22 | 321 | 22.5 | 33.8 | 0.00 | 5.82 | 1.09 | 70 | 1002.9 |
| 20260504023504 | 22 | 324 | 19.3 | 33.8 | 0.00 | 5.82 | 1.09 | 70 | 1002.9 |
| 20260504023007 | 21 | 303 | 22.5 | 35.4 | 0.00 | 5.82 | 1.09 | 71 | 1003.0 |
| 20260504022504 | 22 | 323 | 20.9 | 33.8 | 0.00 | 5.82 | 1.09 | 72 | 1002.9 |
| 20260504022004 | 21 | 279 | 20.9 | 33.8 | 0.00 | 5.82 | 1.09 | 72 | 1002.9 |
| 20260504021504 | 21 | 337 | 20.9 | 29.0 | 0.00 | 5.82 | 1.09 | 72 | 1003.0 |
| 20260504021005 | 21 | 295 | 14.5 | 24.1 | 0.00 | 5.82 | 1.09 | 74 | 1003.2 |
| 20260504020004 | 21 | 300 | 16.1 | 24.1 | 0.00 | 5.82 | 1.09 | 75 | 1003.2 |
| 20260504015506 | 21 | 282 | 14.5 | 24.1 | 0.00 | 5.82 | 1.09 | 76 | 1003.3 |
| 20260504015006 | 21 | 273 | 16.1 | 27.4 | 0.00 | 5.82 | 1.09 | 75 | 1003.3 |
| 20260504014504 | 20 | 322 | 14.5 | 29.0 | 0.00 | 5.82 | 1.09 | 77 | 1003.3 |
| 20260504014006 | 20 | 321 | 14.5 | 27.4 | 0.00 | 5.82 | 1.09 | 77 | 1003.5 |
| 20260504013505 | 20 | 313 | 19.3 | 32.2 | 0.00 | 5.82 | 1.09 | 77 | 1003.5 |
| 20260504013006 | 20 | 301 | 19.3 | 25.7 | 0.00 | 5.82 | 1.09 | 78 | 1003.3 |
| 20260504012504 | 20 | 311 | 19.3 | 25.7 | 0.00 | 5.82 | 1.09 | 79 | 1003.4 |
| 20260504012006 | 20 | 294 | 17.7 | 27.4 | 0.00 | 5.82 | 1.09 | 80 | 1003.5 |
| 20260504011507 | 20 | 289 | 16.1 | 27.4 | 0.00 | 5.82 | 1.09 | 81 | 1003.5 |
| 20260504011005 | 20 | 335 | 19.3 | 25.7 | 0.00 | 5.82 | 1.09 | 81 | 1003.2 |
| 20260504010504 | 20 | 268 | 14.5 | 20.9 | 0.00 | 5.82 | 1.09 | 82 | 1003.4 |
| 20260504010005 | 20 | 303 | 16.1 | 27.4 | 0.00 | 5.82 | 1.09 | 82 | 1003.8 |
| 20260504005504 | 19 | 301 | 19.3 | 25.7 | 0.00 | 5.82 | 1.09 | 83 | 1003.7 |
| 20260504005006 | 19 | 305 | 17.7 | 25.7 | 0.00 | 5.82 | 1.09 | 83 | 1003.7 |
| 20260504004504 | 19 | 261 | 16.1 | 27.4 | 0.00 | 5.82 | 1.09 | 84 | 1003.7 |
| 20260504004006 | 20 | 282 | 16.1 | 27.4 | 0.00 | 5.82 | 1.09 | 85 | 1003.4 |
| 20260504003504 | 20 | 294 | 19.3 | 25.7 | 0.00 | 5.82 | 1.09 | 84 | 1003.3 |
| 20260504003004 | 20 | 270 | 14.5 | 19.3 | 0.00 | 5.82 | 1.09 | 85 | 1003.3 |
| 20260504002504 | 19 | 280 | 14.5 | 19.3 | 0.00 | 5.82 | 1.09 | 85 | 1003.3 |
| 20260504002004 | 19 | 263 | 9.7 | 16.1 | 0.00 | 5.82 | 1.09 | 86 | 1003.3 |
| 20260504001504 | 19 | 291 | 11.3 | 22.5 | 0.00 | 5.82 | 1.09 | 86 | 1003.3 |
| 20260504000506 | 19 | 258 | 12.9 | 19.3 | 0.00 | 5.82 | 1.09 | 86 | 1003.3 |
| 20260504000009 | 19 | 277 | 12.9 | 19.3 | 0.00 | 5.82 | 1.09 | 87 | 1003.3 |
| 20260503235504 | 19 | 253 | 12.9 | 19.3 | 0.00 | 5.82 | 1.09 | 87 | 1003.4 |
| 20260503235004 | 18 | 283 | 11.3 | 20.9 | 0.00 | 5.82 | 1.09 | 88 | 1003.4 |
| 20260503234504 | 18 | 291 | 14.5 | 20.9 | 0.00 | 5.82 | 1.09 | 88 | 1003.4 |
| 20260503233504 | 18 | 300 | 14.5 | 24.1 | 0.00 | 5.82 | 1.09 | 88 | 1003.2 |
| 20260503233005 | 18 | 283 | 17.7 | 24.1 | 0.00 | 5.82 | 1.09 | 88 | 1003.2 |
| 20260503232504 | 18 | 297 | 17.7 | 27.4 | 0.00 | 5.82 | 1.09 | 88 | 1003.3 |
| 20260503232005 | 18 | 295 | 16.1 | 29.0 | 0.00 | 5.82 | 1.09 | 89 | 1003.3 |
| 20260503231504 | 18 | 282 | 16.1 | 24.1 | 0.00 | 5.82 | 1.09 | 89 | 1003.3 |
| 20260503231004 | 18 | 294 | 17.7 | 27.4 | 0.00 | 5.82 | 1.09 | 89 | 1003.3 |
| 20260503225507 | 18 | 291 | 16.1 | 25.7 | 0.00 | 5.82 | 1.09 | 90 | 1003.0 |
| 20260503225004 | 18 | 340 | 19.3 | 24.1 | 0.00 | 5.82 | 1.09 | 90 | 1002.6 |
| 20260503224503 | 18 | 282 | 16.1 | 22.5 | 0.00 | 5.82 | 1.09 | 90 | 1002.5 |
| 20260503224004 | 18 | 304 | 11.3 | 24.1 | 0.00 | 5.82 | 1.09 | 90 | 1002.5 |
| 20260503223505 | 18 | 290 | 11.3 | 19.3 | 0.00 | 5.82 | 1.09 | 90 | 1002.5 |
| 20260503223004 | 18 | 283 | 12.9 | 22.5 | 0.00 | 5.82 | 1.09 | 90 | 1002.5 |
| 20260503222504 | 18 | 310 | 16.1 | 22.5 | 0.00 | 5.82 | 1.09 | 90 | 1002.6 |
| 20260503222004 | 18 | 285 | 19.3 | 24.1 | 0.00 | 5.82 | 1.09 | 90 | 1002.7 |
| 20260503221504 | 18 | 302 | 14.5 | 19.3 | 0.00 | 5.82 | 1.09 | 90 | 1002.5 |
| 20260503221005 | 18 | 282 | 12.9 | 20.9 | 0.00 | 5.82 | 1.09 | 90 | 1002.2 |
| 20260503220505 | 18 | 294 | 12.9 | 19.3 | 0.00 | 5.82 | 1.09 | 90 | 1001.9 |
| 20260503220004 | 18 | 305 | 14.5 | 22.5 | 0.00 | 5.82 | 1.09 | 90 | 1002.0 |
| 20260503215505 | 18 | 291 | 16.1 | 24.1 | 0.00 | 5.82 | 1.09 | 90 | 1001.7 |
| 20260503215004 | 18 | 308 | 14.5 | 24.1 | 0.00 | 5.82 | 1.09 | 90 | 1001.7 |
| 20260503214504 | 18 | 321 | 16.1 | 24.1 | 0.00 | 5.82 | 1.09 | 90 | 1001.8 |
| 20260503213505 | 18 | 326 | 22.5 | 33.8 | 0.03 | 5.82 | 1.09 | 89 | 1001.7 |
| 20260503212504 | 19 | 333 | 20.9 | 32.2 | 0.03 | 5.82 | 1.09 | 90 | 1001.5 |
| 20260503212004 | 19 | 307 | 16.1 | 24.1 | 0.03 | 5.82 | 1.09 | 91 | 1001.5 |
| 20260503211504 | 19 | 300 | 16.1 | 25.7 | 0.03 | 5.82 | 1.09 | 91 | 1001.5 |
| 20260503211004 | 19 | 285 | 17.7 | 27.4 | 0.03 | 5.82 | 1.09 | 91 | 1001.7 |
| 20260503210505 | 19 | 319 | 22.5 | 40.2 | 0.03 | 5.82 | 1.09 | 93 | 1001.7 |
| 20260503210004 | 19 | 321 | 14.5 | 29.0 | 0.05 | 5.82 | 1.09 | 95 | 1001.6 |
| 20260503205504 | 19 | 300 | 16.1 | 22.5 | 0.05 | 5.82 | 1.09 | 95 | 1001.5 |
| 20260503204505 | 19 | 310 | 9.7 | 14.5 | 0.10 | 5.82 | 1.09 | 96 | 1001.3 |
| 20260503204004 | 19 | 310 | 11.3 | 20.9 | 0.13 | 5.82 | 1.09 | 96 | 1001.5 |
| 20260503203005 | 19 | 282 | 9.7 | 19.3 | 0.18 | 5.79 | 1.07 | 96 | 1001.2 |
| 20260503202505 | 20 | 281 | 11.3 | 19.3 | 0.18 | 5.79 | 1.07 | 96 | 1001.3 |
| 20260503202005 | 20 | 342 | 9.7 | 20.9 | 0.20 | 5.79 | 1.07 | 96 | 1001.5 |
| 20260503201505 | 20 | 314 | 12.9 | 27.4 | 0.20 | 5.79 | 1.07 | 96 | 1001.5 |
| 20260503201005 | 20 | 301 | 14.5 | 22.5 | 0.20 | 5.79 | 1.07 | 96 | 1001.4 |
| 20260503200504 | 20 | 299 | 14.5 | 20.9 | 0.23 | 5.79 | 1.07 | 96 | 1001.1 |
| 20260503195504 | 20 | 280 | 19.3 | 25.7 | 0.25 | 5.79 | 1.04 | 96 | 1001.1 |
| 20260503195005 | 20 | 276 | 20.9 | 27.4 | 0.30 | 5.74 | 0.99 | 96 | 1001.1 |
| 20260503194504 | 20 | 331 | 17.7 | 35.4 | 0.38 | 5.71 | 0.99 | 95 | 1001.1 |
| 20260503194004 | 20 | 296 | 22.5 | 32.2 | 0.46 | 5.69 | 0.97 | 95 | 1000.9 |
| 20260503193505 | 20 | 310 | 19.3 | 27.4 | 0.46 | 5.66 | 0.91 | 95 | 1001.0 |
| 20260503193004 | 20 | 310 | 19.3 | 35.4 | 0.43 | 5.61 | 0.89 | 96 | 1000.2 |
| 20260503192504 | 20 | 223 | 22.5 | 35.4 | 0.43 | 5.61 | 0.89 | 96 | 1000.2 |
| 20260503192004 | 20 | 340 | 24.1 | 35.4 | 0.41 | 5.59 | 0.86 | 96 | 1000.5 |
| 20260503191006 | 20 | 310 | 24.1 | 37.0 | 0.41 | 5.59 | 0.86 | 96 | 1000.7 |
| 20260503190004 | 20 | 215 | 25.7 | 41.8 | 0.36 | 5.56 | 0.81 | 96 | 1000.0 |
| 20260503185504 | 20 | 327 | 29.0 | 51.5 | 0.33 | 5.51 | 0.79 | 95 | 1000.0 |
| 20260503185004 | 20 | 239 | 22.5 | 45.1 | 0.23 | 5.44 | 0.71 | 95 | 1000.1 |
| 20260503184004 | 20 | 303 | 25.7 | 48.3 | 0.05 | 5.23 | 0.51 | 94 | 1000.4 |
| 20260503183505 | 20 | 339 | 22.5 | 40.2 | 0.00 | 5.21 | 0.46 | 94 | 1000.5 |
| 20260503183005 | 20 | 313 | 22.5 | 37.0 | 0.00 | 5.21 | 0.46 | 94 | 1000.4 |
| 20260503182505 | 20 | 298 | 20.9 | 37.0 | 0.00 | 5.21 | 0.46 | 94 | 1000.7 |
| 20260503182007 | 20 | 235 | 25.7 | 40.2 | 0.00 | 5.21 | 0.46 | 94 | 1000.7 |
| 20260503181506 | 20 | 241 | 20.9 | 33.8 | 0.00 | 5.21 | 0.46 | 94 | 1000.8 |
| 20260503181004 | 20 | 356 | 20.9 | 32.2 | 0.00 | 5.21 | 0.46 | 94 | 1001.0 |
| 20260503175506 | 20 | 283 | 20.9 | 32.2 | 0.03 | 5.21 | 0.46 | 94 | 1001.2 |
| 20260503175005 | 20 | 343 | 20.9 | 33.8 | 0.03 | 5.21 | 0.46 | 95 | 1001.5 |
| 20260503174504 | 20 | 246 | 22.5 | 37.0 | 0.05 | 5.21 | 0.46 | 95 | 1001.5 |
| 20260503173504 | 20 | 9 | 12.9 | 29.0 | 0.05 | 5.21 | 0.46 | 96 | 1001.5 |
| 20260503173005 | 20 | 221 | 12.9 | 29.0 | 0.05 | 5.21 | 0.46 | 96 | 1001.6 |
| 20260503172504 | 20 | 197 | 12.9 | 24.1 | 0.05 | 5.21 | 0.46 | 96 | 1001.8 |
| 20260503172006 | 20 | 210 | 12.9 | 25.7 | 0.05 | 5.21 | 0.46 | 96 | 1002.0 |
| 20260503171505 | 20 | 197 | 9.7 | 24.1 | 0.05 | 5.21 | 0.46 | 96 | 1002.1 |
| 20260503171004 | 19 | 283 | 11.3 | 27.4 | 0.05 | 5.21 | 0.46 | 97 | 1002.3 |
| 20260503170505 | 19 | 169 | 9.7 | 25.7 | 0.05 | 5.21 | 0.46 | 97 | 1002.3 |